Time;durP1;ratioP1;P1;durP2;ratioP2;P2;SDS_P1;SDS_P2;PMS_P1;PMS_P2;Temp;Humidity;BMP_temperature;BMP_pressure;BME280_temperature;BME280_humidity;BME280_pressure;Samples;Min_cycle;Max_cycle;Signal;HPM_P1;HPM_P2
2022/05/19 00:00:06;;;;;;;2.50;1.80;;;;;;;10.32;62.63;100669.98;1805895;79;21745;-71
2022/05/19 00:02:35;;;;;;;3.22;2.05;;;;;;;10.29;62.73;100660.50;1766497;80;20857;-71
2022/05/19 00:05:02;;;;;;;3.60;2.05;;;;;;;10.27;62.87;100671.66;1798873;79;20937;-72
2022/05/19 00:07:29;;;;;;;3.83;1.85;;;;;;;10.26;62.97;100664.69;1804331;77;20985;-70
2022/05/19 00:09:57;;;;;;;2.20;1.77;;;;;;;10.24;63.00;100668.41;1806833;79;21020;-71
2022/05/19 00:12:24;;;;;;;4.15;2.20;;;;;;;10.23;63.04;100669.34;1800796;79;21818;-71
2022/05/19 00:14:51;;;;;;;3.47;1.90;;;;;;;10.23;63.08;100670.66;1798902;79;20937;-70
2022/05/19 00:17:18;;;;;;;2.25;1.70;;;;;;;10.19;63.10;100665.22;1786895;79;21009;-70
2022/05/19 00:19:46;;;;;;;4.65;1.75;;;;;;;10.18;63.04;100663.05;1769769;78;21142;-70
2022/05/19 00:22:13;;;;;;;5.72;2.30;;;;;;;10.17;63.02;100654.77;1791444;79;20995;-70
2022/05/19 00:24:41;;;;;;;3.35;1.80;;;;;;;10.17;63.00;100671.94;1786763;78;21980;-70
2022/05/19 00:27:08;;;;;;;2.80;2.08;;;;;;;10.17;63.03;100673.73;1791643;79;21526;-72
2022/05/19 00:29:36;;;;;;;2.80;1.95;;;;;;;10.16;63.03;100674.21;1813464;79;21006;-70
2022/05/19 00:32:06;;;;;;;4.42;2.35;;;;;;;10.16;63.00;100682.13;1795655;79;20971;-71
2022/05/19 00:34:33;;;;;;;3.17;2.05;;;;;;;10.15;62.92;100687.05;1793044;79;20931;-71
2022/05/19 00:37:02;;;;;;;7.28;2.15;;;;;;;10.16;62.93;100682.13;1787654;79;21841;-72
2022/05/19 00:39:29;;;;;;;2.80;2.15;;;;;;;10.16;62.85;100686.56;1814010;79;20979;-74
2022/05/19 00:44:41;;;;;;;3.20;2.47;;;;;;;10.13;62.88;100685.45;1810474;79;21027;-72
2022/05/19 00:47:15;;;;;;;4.45;2.60;;;;;;;10.15;62.91;100690.16;1788719;79;21394;-71
2022/05/19 00:49:43;;;;;;;4.30;2.87;;;;;;;10.15;62.95;100695.44;1802391;79;21820;-71
2022/05/19 00:52:21;;;;;;;3.27;2.75;;;;;;;10.14;63.02;100693.28;1793253;79;21055;-71
2022/05/19 00:54:51;;;;;;;3.87;2.87;;;;;;;10.14;63.05;100694.60;1804735;79;20968;-71
2022/05/19 00:57:26;;;;;;;5.70;3.00;;;;;;;10.15;63.00;100691.48;1807059;79;20983;-71
2022/05/19 01:00:00;;;;;;;4.65;3.05;;;;;;;10.14;63.12;100692.44;1792418;79;20931;-72
2022/05/19 01:02:31;;;;;;;3.90;2.70;;;;;;;10.14;63.12;100693.76;1810586;78;21938;-72
2022/05/19 01:05:08;;;;;;;4.85;3.27;;;;;;;10.12;63.17;100691.20;1800414;79;20991;-71
2022/05/19 01:07:47;;;;;;;7.95;3.40;;;;;;;10.09;63.26;100680.87;1788747;79;20939;-73
2022/05/19 01:10:14;;;;;;;6.62;3.50;;;;;;;10.10;63.24;100685.20;1786192;79;20980;-72
2022/05/19 01:12:46;;;;;;;5.72;3.60;;;;;;;10.10;63.24;100687.00;1787016;79;20936;-72
2022/05/19 01:15:13;;;;;;;5.85;4.00;;;;;;;10.09;63.34;100684.84;1792969;79;21768;-72
2022/05/19 01:17:41;;;;;;;10.25;3.62;;;;;;;10.07;63.37;100693.35;1807336;79;20984;-72
2022/05/19 01:20:14;;;;;;;8.58;3.87;;;;;;;10.08;63.33;100684.47;1797986;77;21378;-73
2022/05/19 01:22:52;;;;;;;6.70;3.90;;;;;;;10.08;63.42;100695.52;1804157;77;20948;-73
2022/05/19 01:25:43;;;;;;;5.92;4.20;;;;;;;10.09;63.43;100694.55;1797695;79;20991;-71
2022/05/19 01:28:10;;;;;;;6.87;3.77;;;;;;;10.09;63.37;100698.52;1798019;78;21859;-72
2022/05/19 01:30:38;;;;;;;8.03;4.47;;;;;;;10.09;63.35;100690.12;1785366;79;21466;-72
2022/05/19 01:33:05;;;;;;;7.55;4.20;;;;;;;10.08;63.37;100687.11;1785009;79;20935;-71
2022/05/19 01:35:33;;;;;;;7.25;4.22;;;;;;;10.08;63.33;100698.15;1766080;78;21009;-71
2022/05/19 01:38:01;;;;;;;8.45;4.70;;;;;;;10.06;63.31;100688.19;1765458;79;21004;-71
2022/05/19 01:41:09;;;;;;;6.85;3.98;;;;;;;10.04;63.33;100690.47;1768942;79;21856;-71
2022/05/19 01:44:30;;;;;;;5.37;3.72;;;;;;;10.04;63.33;100695.74;1731302;81;21512;-71
2022/05/19 01:47:08;;;;;;;6.12;3.83;;;;;;;10.02;63.21;100687.55;1783964;78;21019;-71
2022/05/19 01:49:43;;;;;;;6.08;4.10;;;;;;;10.01;63.15;100691.14;1771741;78;20981;-71
2022/05/19 01:52:18;;;;;;;5.87;3.87;;;;;;;10.02;63.10;100696.78;1793895;79;20994;-72
2022/05/19 01:55:13;;;;;;;4.87;3.87;;;;;;;10.00;63.07;100694.26;1762524;80;22385;-71
2022/05/19 01:58:21;;;;;;;5.03;3.80;;;;;;;10.01;63.03;100706.97;1735706;81;20994;-71
2022/05/19 02:00:50;;;;;;;6.17;3.70;;;;;;;9.98;63.04;100708.05;1737202;81;21021;-77
2022/05/19 02:03:32;;;;;;;7.70;4.08;;;;;;;9.96;63.02;100707.80;1743698;81;21068;-71
2022/05/19 02:06:10;;;;;;;4.95;3.77;;;;;;;9.94;62.97;100705.72;1739811;81;20993;-72
2022/05/19 02:08:44;;;;;;;7.95;3.90;;;;;;;9.95;62.90;100706.12;1735189;81;21809;-73
2022/05/19 02:11:15;;;;;;;5.67;3.62;;;;;;;9.95;62.75;100707.44;1737862;81;20998;-72
2022/05/19 02:13:43;;;;;;;7.78;3.90;;;;;;;9.97;62.75;100710.80;1738964;81;21044;-72
2022/05/19 02:16:13;;;;;;;5.60;3.70;;;;;;;9.97;62.78;100712.96;1750166;81;21326;-72
2022/05/19 02:18:43;;;;;;;5.65;3.85;;;;;;;9.98;62.73;100707.20;1754661;81;21148;-73
2022/05/19 02:21:10;;;;;;;4.85;3.40;;;;;;;9.98;62.64;100709.36;1789355;79;21784;-72
2022/05/19 02:23:37;;;;;;;5.92;3.50;;;;;;;9.99;62.59;100704.45;1788469;79;21016;-74
2022/05/19 02:26:04;;;;;;;7.03;3.55;;;;;;;10.00;62.46;100706.61;1771898;79;21024;-73
2022/05/19 02:28:38;;;;;;;6.20;3.15;;;;;;;10.01;62.37;100707.81;1789927;78;20975;-72
2022/05/19 02:31:05;;;;;;;6.47;3.90;;;;;;;10.03;62.27;100710.34;1800616;79;20928;-71
2022/05/19 02:33:32;;;;;;;7.00;3.33;;;;;;;10.03;62.22;100711.66;1779670;79;22469;-73
2022/05/19 02:35:59;;;;;;;5.15;3.33;;;;;;;10.01;62.24;100717.05;1779021;79;20980;-72
2022/05/19 02:38:27;;;;;;;6.70;3.35;;;;;;;10.01;62.26;100709.61;1802611;78;21565;-72
2022/05/19 02:40:54;;;;;;;6.05;3.50;;;;;;;10.00;62.31;100712.73;1778562;79;20920;-71
2022/05/19 02:43:21;;;;;;;7.37;4.12;;;;;;;9.99;62.33;100717.64;1772917;79;20995;-72
2022/05/19 02:45:50;;;;;;;5.72;3.60;;;;;;;9.98;62.48;100717.76;1773677;79;22548;-72
2022/05/19 02:48:18;;;;;;;6.40;3.70;;;;;;;9.97;62.54;100713.44;1785717;79;20973;-71
2022/05/19 02:50:48;;;;;;;7.83;3.58;;;;;;;9.96;62.69;100719.67;1780413;79;20948;-72
2022/05/19 02:53:16;;;;;;;4.40;3.62;;;;;;;9.93;62.89;100719.39;1785923;78;21383;-72
2022/05/19 02:55:43;;;;;;;5.15;3.60;;;;;;;9.92;62.94;100720.83;1786341;79;21324;-72
2022/05/19 02:58:12;;;;;;;4.85;3.52;;;;;;;9.91;63.04;100731.86;1784377;78;21821;-71
2022/05/19 03:00:41;;;;;;;5.30;3.40;;;;;;;9.89;63.16;100733.77;1782656;79;20983;-72
2022/05/19 03:03:08;;;;;;;5.03;3.22;;;;;;;9.89;63.21;100743.48;1780711;78;21410;-72
2022/05/19 03:05:35;;;;;;;5.95;3.60;;;;;;;9.88;63.39;100740.00;1802574;79;20976;-72
2022/05/19 03:08:02;;;;;;;5.90;3.77;;;;;;;9.87;63.56;100743.59;1802709;78;21335;-71
2022/05/19 03:10:29;;;;;;;5.80;3.90;;;;;;;9.89;63.55;100744.80;1797140;79;22411;-72
2022/05/19 03:13:16;;;;;;;5.47;3.80;;;;;;;9.89;63.81;100740.36;1776409;79;21435;-72
2022/05/19 03:15:45;;;;;;;7.90;4.17;;;;;;;9.90;63.93;100736.77;1707980;82;20971;-72
2022/05/19 03:18:15;;;;;;;6.53;4.17;;;;;;;9.90;63.97;100740.73;1708529;83;21031;-73
2022/05/19 03:20:42;;;;;;;6.58;4.00;;;;;;;9.92;64.00;100743.25;1753235;80;21063;-71
2022/05/19 03:23:09;;;;;;;4.80;3.80;;;;;;;9.93;64.03;100741.82;1692468;83;21840;-71
2022/05/19 03:25:37;;;;;;;5.90;4.10;;;;;;;9.95;64.03;100736.46;1698897;83;21018;-72
2022/05/19 03:28:06;;;;;;;5.92;3.65;;;;;;;9.97;63.96;100743.78;1681026;84;21004;-73
2022/05/19 03:30:35;;;;;;;6.00;3.90;;;;;;;9.99;63.93;100748.47;1696146;84;21076;-73
2022/05/19 03:33:03;;;;;;;7.20;4.37;;;;;;;10.02;63.88;100745.13;1698395;84;21042;-72
2022/05/19 03:35:30;;;;;;;5.92;4.28;;;;;;;10.06;63.78;100745.77;1698685;83;22570;-72
2022/05/19 03:37:58;;;;;;;6.80;4.58;;;;;;;10.08;63.57;100742.54;1699100;83;21030;-72
2022/05/19 03:40:25;;;;;;;5.05;4.20;;;;;;;10.12;63.59;100750.59;1698874;83;21037;-72
2022/05/19 03:42:53;;;;;;;7.28;4.58;;;;;;;10.17;63.61;100750.28;1698490;83;20990;-72
2022/05/19 03:45:20;;;;;;;7.87;4.70;;;;;;;10.19;63.56;100746.56;1694249;83;21113;-72
2022/05/19 03:47:47;;;;;;;8.55;4.50;;;;;;;10.23;63.52;100756.00;1698697;83;21774;-73
2022/05/19 03:50:15;;;;;;;6.05;4.30;;;;;;;10.27;63.32;100753.97;1703114;83;20966;-71
2022/05/19 03:52:42;;;;;;;6.55;4.28;;;;;;;10.32;63.09;100757.95;1695533;83;21559;-71
2022/05/19 03:55:11;;;;;;;10.88;4.78;;;;;;;10.37;62.86;100755.47;1710006;83;21047;-72
2022/05/19 03:57:39;;;;;;;9.73;4.62;;;;;;;10.41;62.77;100760.88;1673779;83;21043;-71
2022/05/19 04:00:07;;;;;;;7.75;4.45;;;;;;;10.47;62.63;100772.34;1702867;81;21808;-71
2022/05/19 04:02:39;;;;;;;7.33;4.80;;;;;;;10.51;62.50;100764.55;1669947;84;21045;-71
2022/05/19 04:05:06;;;;;;;9.03;4.78;;;;;;;10.56;62.23;100767.23;1697634;84;20981;-71
2022/05/19 04:07:37;;;;;;;9.05;5.08;;;;;;;10.60;61.98;100764.72;1698570;83;21028;-71
2022/05/19 04:10:06;;;;;;;11.35;5.15;;;;;;;10.67;61.86;100770.41;1702104;81;21076;-71
2022/05/19 04:12:33;;;;;;;7.12;4.80;;;;;;;10.74;61.70;100774.28;1698821;83;22579;-72
2022/05/19 04:15:00;;;;;;;6.55;4.62;;;;;;;10.80;61.48;100768.53;1692565;83;21065;-71
2022/05/19 04:17:33;;;;;;;9.38;4.95;;;;;;;10.85;61.27;100773.02;1687702;83;21013;-72
2022/05/19 04:19:56;;;;;;;9.53;4.67;;;;;;;10.89;61.06;100773.61;1695062;83;20983;-70
2022/05/19 04:22:23;;;;;;;7.00;5.00;;;;;;;10.95;61.05;100774.97;1716215;83;21116;-71
2022/05/19 04:24:50;;;;;;;6.08;4.53;;;;;;;11.02;61.03;100781.49;1692320;83;21918;-71
2022/05/19 04:27:17;;;;;;;7.45;4.45;;;;;;;11.09;60.74;100771.64;1694584;83;20982;-71
2022/05/19 04:29:44;;;;;;;6.62;4.58;;;;;;;11.15;60.39;100775.64;1690842;83;20951;-72
2022/05/19 04:32:12;;;;;;;7.30;4.47;;;;;;;11.20;59.90;100780.11;1691100;83;21053;-73
2022/05/19 04:34:40;;;;;;;8.60;4.58;;;;;;;11.22;59.64;100775.55;1682974;83;21461;-71
2022/05/19 04:37:08;;;;;;;7.70;4.35;;;;;;;11.26;59.74;100784.08;1699552;83;21815;-71
2022/05/19 04:39:36;;;;;;;5.60;4.53;;;;;;;11.28;59.58;100786.96;1699088;83;20957;-70
2022/05/19 04:42:08;;;;;;;7.62;4.60;;;;;;;11.32;59.34;100781.82;1704759;81;21028;-70
2022/05/19 04:44:36;;;;;;;6.85;4.55;;;;;;;11.36;59.33;100787.71;1699847;83;21350;-70
2022/05/19 04:47:04;;;;;;;8.08;4.78;;;;;;;11.38;59.20;100786.63;1700901;83;21391;-71
2022/05/19 04:49:32;;;;;;;8.25;4.55;;;;;;;11.45;59.44;100787.01;1705512;83;22060;-71
2022/05/19 04:52:00;;;;;;;6.83;4.55;;;;;;;11.52;58.99;100784.75;1700189;83;20944;-73
2022/05/19 04:54:27;;;;;;;8.05;4.30;;;;;;;11.58;58.58;100790.87;1698541;83;21039;-73
2022/05/19 04:56:55;;;;;;;7.35;4.30;;;;;;;11.65;58.59;100785.48;1698875;83;21021;-72
2022/05/19 04:59:23;;;;;;;7.08;4.15;;;;;;;11.73;58.62;100789.22;1703591;83;21115;-71
2022/05/19 05:01:50;;;;;;;7.95;4.75;;;;;;;11.82;58.16;100790.82;1705452;83;21791;-71
2022/05/19 05:04:19;;;;;;;6.10;4.12;;;;;;;11.85;58.03;100790.57;1688623;83;21024;-70
2022/05/19 05:06:46;;;;;;;8.83;4.42;;;;;;;11.88;57.46;100796.49;1690509;83;21457;-71
2022/05/19 05:09:14;;;;;;;5.78;3.95;;;;;;;11.91;57.51;100792.27;1680638;83;21080;-72
2022/05/19 05:11:43;;;;;;;7.40;4.17;;;;;;;11.95;57.53;100789.73;1680937;83;21030;-75
2022/05/19 05:14:11;;;;;;;8.90;4.20;;;;;;;12.02;57.72;100788.30;1701036;83;22014;-73
2022/05/19 05:16:38;;;;;;;8.58;4.22;;;;;;;12.11;57.55;100788.53;1691495;83;21038;-73
2022/05/19 05:19:05;;;;;;;6.22;4.28;;;;;;;12.21;57.55;100790.81;1695674;82;21049;-71
2022/05/19 05:21:34;;;;;;;6.47;3.60;;;;;;;12.33;57.28;100796.45;1690973;83;21057;-73
2022/05/19 05:24:02;;;;;;;8.28;4.00;;;;;;;12.37;56.64;100790.44;1696440;83;21018;-72
2022/05/19 05:26:30;;;;;;;6.40;3.65;;;;;;;12.36;56.64;100794.90;1674621;83;22487;-72
2022/05/19 05:28:57;;;;;;;6.75;3.70;;;;;;;12.40;56.50;100792.83;1689861;83;21029;-72
2022/05/19 05:31:24;;;;;;;8.40;4.22;;;;;;;12.48;56.77;100797.88;1690484;83;21197;-73
2022/05/19 05:33:52;;;;;;;10.13;4.10;;;;;;;12.56;56.38;100794.13;1690707;83;21487;-72
2022/05/19 05:36:19;;;;;;;5.40;4.15;;;;;;;12.64;56.21;100797.94;1690005;83;21064;-76
2022/05/19 05:38:47;;;;;;;7.90;4.22;;;;;;;12.70;56.01;100805.41;1690509;83;21853;-72
2022/05/19 05:41:15;;;;;;;7.62;4.40;;;;;;;12.73;55.91;100806.47;1690069;83;21058;-74
2022/05/19 05:43:42;;;;;;;7.72;3.75;;;;;;;12.81;55.85;100804.88;1683275;83;21069;-73
2022/05/19 05:46:14;;;;;;;5.60;3.98;;;;;;;12.90;56.09;100808.59;1684519;83;21022;-72
2022/05/19 05:48:42;;;;;;;9.15;4.20;;;;;;;13.01;55.75;100813.84;1700816;83;21020;-76
2022/05/19 05:51:13;;;;;;;8.70;4.40;;;;;;;13.05;55.41;100814.45;1699078;83;21091;-75
2022/05/19 05:53:41;;;;;;;6.03;4.22;;;;;;;13.08;55.10;100818.17;1699492;83;21060;-73
2022/05/19 05:56:11;;;;;;;8.10;4.30;;;;;;;13.10;55.31;100818.39;1698818;83;21086;-72
2022/05/19 05:58:39;;;;;;;6.83;3.95;;;;;;;13.19;55.11;100818.15;1699297;84;21059;-73
2022/05/19 06:01:10;;;;;;;6.42;4.25;;;;;;;13.29;55.28;100809.77;1697219;83;21029;-72
2022/05/19 06:03:38;;;;;;;8.08;4.10;;;;;;;13.40;54.91;100818.16;1710618;82;21833;-69
2022/05/19 06:06:06;;;;;;;7.28;4.20;;;;;;;13.44;54.45;100812.97;1729020;82;21045;-69
2022/05/19 06:08:34;;;;;;;6.60;3.77;;;;;;;13.46;54.27;100818.49;1719990;82;21032;-67
2022/05/19 06:11:01;;;;;;;7.50;4.03;;;;;;;13.48;53.82;100810.39;1725221;82;21123;-70
2022/05/19 06:13:29;;;;;;;6.85;4.25;;;;;;;13.56;53.99;100812.41;1720704;82;21029;-69
2022/05/19 06:15:57;;;;;;;7.25;4.15;;;;;;;13.65;53.80;100815.61;1714274;82;21824;-72
2022/05/19 06:18:25;;;;;;;6.17;4.20;;;;;;;13.70;53.63;100811.60;1708568;82;21019;-70
2022/05/19 06:20:54;;;;;;;7.50;4.30;;;;;;;13.79;53.59;100810.43;1709139;82;21124;-72
2022/05/19 06:23:22;;;;;;;5.97;3.83;;;;;;;13.88;53.84;100809.16;1708031;82;21036;-72
2022/05/19 06:25:49;;;;;;;6.42;3.77;;;;;;;14.01;53.30;100806.30;1682830;82;21068;-72
2022/05/19 06:28:17;;;;;;;5.15;3.55;;;;;;;14.06;52.62;100807.21;1709999;82;21938;-73
2022/05/19 06:30:44;;;;;;;7.47;4.00;;;;;;;14.10;52.31;100814.80;1696394;83;21005;-70
2022/05/19 06:33:17;;;;;;;5.90;3.62;;;;;;;14.13;52.27;100812.35;1668705;84;21028;-69
2022/05/19 06:35:44;;;;;;;6.20;3.98;;;;;;;14.19;52.08;100815.32;1658618;86;21492;-72
2022/05/19 06:38:12;;;;;;;5.40;3.30;;;;;;;14.25;51.30;100813.44;1669003;85;21059;-70
2022/05/19 06:40:41;;;;;;;6.22;3.67;;;;;;;14.32;51.14;100815.08;1674544;84;21930;-68
2022/05/19 06:43:11;;;;;;;5.92;3.17;;;;;;;14.40;51.32;100818.39;1666827;85;21757;-72
2022/05/19 06:45:40;;;;;;;7.72;3.92;;;;;;;14.46;50.16;100821.84;1658008;85;21072;-69
2022/05/19 06:48:09;;;;;;;6.62;3.25;;;;;;;14.44;50.01;100823.29;1664607;85;21458;-75
2022/05/19 06:50:36;;;;;;;5.75;3.80;;;;;;;14.47;50.15;100823.04;1659344;85;21181;-69
2022/05/19 06:53:05;;;;;;;5.78;3.70;;;;;;;14.55;50.28;100822.36;1654795;85;22602;-69
2022/05/19 06:55:34;;;;;;;4.92;3.40;;;;;;;14.67;50.30;100813.77;1664223;84;21051;-73
2022/05/19 06:58:01;;;;;;;4.25;3.20;;;;;;;14.81;50.21;100818.22;1669457;84;20949;-69
2022/05/19 07:00:29;;;;;;;8.40;3.05;;;;;;;14.97;49.93;100816.84;1665347;84;21024;-68
2022/05/19 07:02:58;;;;;;;6.47;3.47;;;;;;;15.14;49.39;100823.61;1690351;83;21630;-70
2022/05/19 07:05:29;;;;;;;5.08;3.20;;;;;;;15.28;47.81;100818.38;1656994;85;21824;-70
2022/05/19 07:08:00;;;;;;;5.53;3.33;;;;;;;15.32;47.41;100821.09;1667192;84;21022;-70
2022/05/19 07:10:28;;;;;;;5.70;3.20;;;;;;;15.31;47.14;100822.08;1666709;84;21172;-68
2022/05/19 07:12:56;;;;;;;6.03;3.20;;;;;;;15.31;47.30;100821.23;1665136;84;21524;-73
2022/05/19 07:15:24;;;;;;;3.72;2.70;;;;;;;15.30;47.12;100812.41;1719244;81;21039;-70
2022/05/19 07:17:51;;;;;;;4.95;2.90;;;;;;;15.37;47.46;100825.52;1732005;81;22127;-72
2022/05/19 07:23:06;;;;;;;3.67;2.80;;;;;;;15.66;47.29;100814.02;1719200;82;21090;-71
2022/05/19 07:25:36;;;;;;;5.80;2.58;;;;;;;15.78;45.98;100824.00;1701105;82;21606;-72
2022/05/19 07:28:10;;;;;;;6.12;2.95;;;;;;;15.81;44.95;100824.53;1693279;83;21184;-74
2022/05/19 07:30:41;;;;;;;5.97;2.60;;;;;;;15.82;45.22;100821.38;1741153;81;21977;-71
2022/05/19 07:33:11;;;;;;;4.85;2.60;;;;;;;15.83;44.23;100833.25;1738389;81;21082;-69
2022/05/19 07:35:40;;;;;;;3.92;2.37;;;;;;;15.80;43.93;100821.53;1690316;83;21399;-71
2022/05/19 07:38:07;;;;;;;3.72;2.40;;;;;;;15.86;44.13;100822.30;1705129;82;21100;-71
2022/05/19 07:40:34;;;;;;;5.25;2.50;;;;;;;15.96;44.07;100823.09;1704842;82;22217;-70
2022/05/19 07:45:48;;;;;;;3.72;2.00;;;;;;;16.11;42.72;100815.45;1727805;81;20999;-75
2022/05/19 07:48:15;;;;;;;7.12;2.20;;;;;;;16.20;42.74;100817.23;1692515;83;22054;-72
2022/05/19 07:50:42;;;;;;;4.25;2.10;;;;;;;16.27;42.90;100808.16;1723495;83;21048;-70
2022/05/19 07:53:10;;;;;;;3.12;1.85;;;;;;;16.34;41.72;100812.42;1702966;82;21059;-73
2022/05/19 07:55:37;;;;;;;2.25;1.85;;;;;;;16.42;42.39;100810.70;1704254;82;22480;-75
2022/05/19 07:58:05;;;;;;;5.78;2.08;;;;;;;16.58;41.67;100793.52;1706032;82;21047;-83
2022/05/19 08:00:32;;;;;;;6.42;1.90;;;;;;;16.67;40.10;100798.95;1702455;82;22267;-79
2022/05/19 08:03:01;;;;;;;3.87;1.67;;;;;;;16.63;40.03;100813.59;1714090;82;21115;-74
2022/05/19 08:17:57;;;;;;;3.35;2.00;;;;;;;17.33;39.68;100801.26;1714414;82;21193;-79
2022/05/19 08:20:24;;;;;;;2.47;1.67;;;;;;;17.40;39.94;100801.83;1683591;83;21504;-73
2022/05/19 08:22:52;;;;;;;2.15;1.90;;;;;;;17.55;39.75;100803.92;1685077;83;22526;-74
2022/05/19 08:25:19;;;;;;;3.15;2.17;;;;;;;17.68;39.48;100801.19;1702551;83;21370;-76
2022/05/19 08:27:47;;;;;;;2.98;2.00;;;;;;;17.81;39.23;100802.63;1708281;83;21298;-77
2022/05/19 08:30:16;;;;;;;3.75;1.95;;;;;;;17.87;37.83;100796.16;1693533;83;21036;-79
2022/05/19 08:32:43;;;;;;;2.65;1.70;;;;;;;17.82;38.05;100802.95;1696851;83;21091;-77
2022/05/19 08:35:10;;;;;;;2.85;1.65;;;;;;;17.79;38.88;100796.61;1682502;84;21870;-77
2022/05/19 08:37:37;;;;;;;4.03;1.80;;;;;;;17.92;39.17;100790.32;1694410;84;20941;-76
2022/05/19 08:40:07;;;;;;;4.53;1.55;;;;;;;18.10;37.58;100788.91;1684808;84;22155;-77
2022/05/19 08:42:37;;;;;;;3.33;1.50;;;;;;;18.03;37.99;100779.34;1679708;84;21494;-77
2022/05/19 08:45:08;;;;;;;2.70;1.60;;;;;;;18.06;37.56;100786.23;1677462;84;21547;-72
2022/05/19 08:47:35;;;;;;;3.27;1.57;;;;;;;17.97;38.01;100783.52;1672709;84;21832;-76
2022/05/19 08:50:07;;;;;;;2.90;1.60;;;;;;;18.07;38.06;100782.05;1664358;84;21123;-76
2022/05/19 08:52:39;;;;;;;1.98;1.62;;;;;;;18.22;37.40;100791.62;1680993;84;21472;-73
2022/05/19 08:55:08;;;;;;;2.33;1.60;;;;;;;18.25;37.02;100788.15;1684850;84;21091;-74
2022/05/19 08:57:58;;;;;;;4.55;1.55;;;;;;;18.26;36.34;100783.64;1645516;86;21102;-73
2022/05/19 09:00:46;;;;;;;2.52;1.50;;;;;;;18.22;36.71;100783.10;1646082;84;22030;-71
2022/05/19 09:03:45;;;;;;;2.58;1.45;;;;;;;18.29;37.33;100777.45;1691486;84;21071;-72
2022/05/19 09:10:42;;;;;;;1.65;1.20;;;;;;;18.59;35.94;100773.86;1666979;86;21044;-73
2022/05/19 09:13:37;;;;;;;3.85;1.40;;;;;;;18.62;35.17;100763.32;1640214;84;21531;-73
2022/05/19 09:16:17;;;;;;;1.62;1.30;;;;;;;18.70;35.87;100770.89;1677522;84;22196;-73
2022/05/19 09:18:55;;;;;;;5.05;1.27;;;;;;;18.89;35.59;100772.42;1676713;84;21341;-72
2022/05/19 09:21:22;;;;;;;3.00;1.40;;;;;;;19.02;35.18;100763.92;1690196;83;21033;-71
2022/05/19 09:23:48;;;;;;;2.37;1.20;;;;;;;19.10;35.00;100763.90;1719136;82;21101;-74
2022/05/19 09:26:43;;;;;;;4.37;1.10;;;;;;;19.15;34.70;100763.74;1715385;82;21039;-71
2022/05/19 09:29:15;;;;;;;2.05;1.00;;;;;;;19.31;34.78;100766.92;1720774;83;23349;-72
2022/05/19 09:31:51;;;;;;;1.00;0.90;;;;;;;19.41;33.38;100757.38;1720325;83;21266;-72
2022/05/19 09:34:19;;;;;;;1.52;1.05;;;;;;;19.46;33.27;100752.32;1720746;82;21248;-70
2022/05/19 09:37:04;;;;;;;1.85;0.90;;;;;;;19.57;32.46;100756.02;1720931;82;21032;-74
2022/05/19 09:39:34;;;;;;;2.95;0.90;;;;;;;19.63;32.45;100756.68;1690392;84;21003;-71
2022/05/19 09:42:10;;;;;;;0.80;0.80;;;;;;;19.71;31.54;100751.81;1702904;82;21995;-71
2022/05/19 09:44:42;;;;;;;2.67;1.00;;;;;;;19.73;32.48;100742.58;1717630;82;21572;-71
2022/05/19 09:47:20;;;;;;;1.05;0.90;;;;;;;19.89;31.64;100750.25;1693097;83;21007;-69
2022/05/19 09:50:08;;;;;;;1.00;0.85;;;;;;;19.87;31.59;100741.52;1718996;82;21045;-71
2022/05/19 09:52:40;;;;;;;3.80;1.00;;;;;;;19.89;31.57;100751.08;1738805;82;21511;-73
2022/05/19 09:55:08;;;;;;;2.92;0.98;;;;;;;19.93;32.28;100741.67;1696486;83;22325;-71
2022/05/19 09:57:52;;;;;;;2.80;0.93;;;;;;;20.13;32.54;100743.94;1718584;82;21026;-70
2022/05/19 10:00:53;;;;;;;1.52;0.80;;;;;;;20.34;31.30;100736.11;1690421;84;28586;-70
2022/05/19 10:03:36;;;;;;;1.32;0.80;;;;;;;20.55;30.89;100734.99;1700011;83;21034;-68
2022/05/19 10:06:23;;;;;;;0.78;0.78;;;;;;;20.68;30.25;100734.42;1720274;83;21053;-68
2022/05/19 10:08:59;;;;;;;1.80;0.78;;;;;;;20.85;30.06;100735.15;1736711;82;21839;-68
2022/05/19 10:11:29;;;;;;;2.90;0.80;;;;;;;21.00;30.07;100729.81;1733439;82;21087;-72
2022/05/19 10:14:07;;;;;;;1.70;0.80;;;;;;;21.11;30.93;100740.11;1720117;82;21036;-69
2022/05/19 10:16:59;;;;;;;1.05;0.70;;;;;;;21.21;29.88;100728.60;1711661;82;21068;-68
2022/05/19 10:19:37;;;;;;;1.12;0.70;;;;;;;21.25;29.29;100739.33;1718558;82;21041;-72
2022/05/19 10:22:25;;;;;;;3.70;0.80;;;;;;;21.29;29.26;100741.16;1718525;82;21990;-70
2022/05/19 10:25:39;;;;;;;3.87;0.70;;;;;;;21.35;29.47;100730.53;1717089;82;21495;-68
2022/05/19 10:31:25;;;;;;;2.50;0.70;;;;;;;21.38;28.44;100723.94;1720007;82;21484;-70
2022/05/19 10:34:10;;;;;;;3.72;0.80;;;;;;;21.31;28.46;100718.97;1720466;82;21481;-69
2022/05/19 10:37:09;;;;;;;1.55;0.80;;;;;;;21.32;29.87;100723.32;1716564;83;21850;-69
2022/05/19 10:40:00;;;;;;;2.65;0.90;;;;;;;21.60;29.63;100724.87;1718978;82;21504;-70
2022/05/19 10:43:07;;;;;;;2.25;1.02;;;;;;;21.91;28.09;100712.61;1719624;82;22333;-71
2022/05/19 10:45:38;;;;;;;5.17;0.70;;;;;;;21.99;28.43;100715.17;1719747;82;21065;-68
2022/05/19 10:48:35;;;;;;;2.33;0.90;;;;;;;22.07;28.06;100717.78;1695042;83;21046;-70
2022/05/19 10:51:25;;;;;;;1.17;0.75;;;;;;;22.20;28.26;100714.44;1740941;82;21976;-69
2022/05/19 10:54:25;;;;;;;2.05;0.70;;;;;;;22.40;28.25;100703.39;1719725;82;21043;-71
2022/05/19 10:57:29;;;;;;;1.98;0.60;;;;;;;22.67;28.00;100704.45;1705169;82;21057;-73
2022/05/19 11:00:22;;;;;;;1.22;0.70;;;;;;;22.93;27.29;100697.69;1696938;82;21008;-75
2022/05/19 11:03:46;;;;;;;1.25;0.80;;;;;;;23.10;26.87;100695.87;1709910;82;21537;-75
2022/05/19 11:06:37;;;;;;;1.62;0.80;;;;;;;23.16;26.50;100686.15;1638307;86;21972;-75
2022/05/19 11:09:19;;;;;;;2.65;0.80;;;;;;;23.30;26.55;100689.79;1638741;85;21599;-75
2022/05/19 11:11:59;;;;;;;0.57;0.57;;;;;;;23.46;26.92;100695.39;1693198;83;21017;-74
2022/05/19 11:15:02;;;;;;;2.08;0.70;;;;;;;23.50;26.59;100687.22;1717842;82;21449;-73
2022/05/19 11:17:56;;;;;;;2.77;0.90;;;;;;;23.39;27.13;100692.65;1718834;82;21055;-76
2022/05/19 11:21:04;;;;;;;1.45;0.82;;;;;;;23.42;26.81;100689.03;1712025;82;21807;-75
2022/05/19 11:24:17;;;;;;;1.75;0.88;;;;;;;23.51;27.08;100674.87;1706858;82;21059;-76
2022/05/19 11:27:01;;;;;;;1.50;0.70;;;;;;;23.69;26.70;100678.43;1708859;82;21079;-75
2022/05/19 11:29:49;;;;;;;1.20;0.90;;;;;;;23.81;25.49;100674.64;1701322;82;21045;-73
2022/05/19 11:32:25;;;;;;;1.15;0.80;;;;;;;23.87;26.11;100671.98;1709187;82;21051;-75
2022/05/19 11:35:15;;;;;;;0.88;0.70;;;;;;;24.09;26.64;100673.20;1710670;82;21791;-74
2022/05/19 11:38:03;;;;;;;1.12;0.80;;;;;;;24.40;26.37;100676.20;1673854;85;21095;-75
2022/05/19 11:40:50;;;;;;;1.35;0.80;;;;;;;24.38;25.40;100651.81;1693953;82;21064;-74
2022/05/19 11:43:34;;;;;;;0.80;0.70;;;;;;;24.29;26.43;100663.28;1706666;83;21044;-73
2022/05/19 11:46:18;;;;;;;2.62;0.80;;;;;;;24.34;25.97;100671.64;1708264;82;21077;-74
2022/05/19 11:55:12;;;;;;;1.15;0.70;;;;;;;24.06;25.92;100650.67;1638261;83;21052;-76
2022/05/19 11:57:56;;;;;;;1.42;0.80;;;;;;;24.00;26.17;100655.00;1690796;83;22046;-74
2022/05/19 12:00:26;;;;;;;5.20;0.80;;;;;;;24.02;25.66;100648.05;1705533;83;21096;-73
2022/05/19 12:03:18;;;;;;;2.62;0.98;;;;;;;24.16;25.96;100644.37;1710581;83;21892;-73
2022/05/19 12:06:05;;;;;;;2.35;0.75;;;;;;;24.23;25.37;100643.35;1693200;83;21044;-74
2022/05/19 12:08:35;;;;;;;2.17;0.90;;;;;;;24.34;25.42;100643.30;1710965;82;21036;-75
2022/05/19 12:11:21;;;;;;;1.02;0.70;;;;;;;24.42;25.05;100644.45;1693985;82;21052;-75
2022/05/19 12:13:51;;;;;;;3.02;0.70;;;;;;;24.42;25.55;100640.41;1677072;83;21491;-75
2022/05/19 12:16:25;;;;;;;2.17;0.78;;;;;;;24.47;24.84;100641.13;1707141;82;21933;-74
2022/05/19 12:19:07;;;;;;;3.05;0.80;;;;;;;24.51;25.69;100639.17;1687395;83;21120;-74
2022/05/19 12:21:51;;;;;;;3.02;0.80;;;;;;;24.70;24.99;100642.06;1714936;82;21024;-74
2022/05/19 12:24:21;;;;;;;2.08;0.65;;;;;;;24.63;24.74;100629.92;1720483;83;21057;-74
2022/05/19 12:26:57;;;;;;;1.05;0.60;;;;;;;24.67;25.13;100634.38;1696192;83;21069;-73
2022/05/19 12:29:39;;;;;;;1.32;0.70;;;;;;;24.66;24.66;100623.27;1719961;82;21739;-71